Time;durP1;ratioP1;P1;durP2;ratioP2;P2;SDS_P1;SDS_P2;PMS_P1;PMS_P2;Temp;Humidity;BMP_temperature;BMP_pressure;BME280_temperature;BME280_humidity;BME280_pressure;Samples;Min_cycle;Max_cycle;Signal;HPM_P1;HPM_P2
2021/11/12 00:12:57;;;;;;;5.43;1.90;;;8.00;99.90;;;;;;4961101;28;20043;-68
2021/11/12 00:15:23;;;;;;;11.73;1.80;;;8.00;99.90;;;;;;4948341;28;20043;-68
2021/11/12 00:17:50;;;;;;;12.43;2.28;;;8.00;99.90;;;;;;4944835;28;20066;-73
2021/11/12 00:20:17;;;;;;;8.77;1.50;;;8.00;99.90;;;;;;4944804;28;20468;-63
2021/11/12 00:22:44;;;;;;;7.78;1.38;;;8.00;99.90;;;;;;4943169;28;20137;-65
2021/11/12 00:25:11;;;;;;;7.53;3.05;;;8.00;99.90;;;;;;4937758;28;20047;-67
2021/11/12 00:27:38;;;;;;;5.07;1.80;;;7.90;99.90;;;;;;4945492;28;20105;-68
2021/11/12 00:33:43;;;;;;;7.90;1.73;;;7.90;99.90;;;;;;4944268;28;20043;-67
2021/11/12 00:35:47;;;;;;;5.88;1.80;;;7.90;99.90;;;;;;4947873;28;20075;-66
2021/11/12 00:38:17;;;;;;;5.43;0.95;;;7.90;99.90;;;;;;4946123;28;20058;-64
2021/11/12 00:40:57;;;;;;;5.00;0.80;;;7.90;99.90;;;;;;4942052;28;20125;-67
2021/11/12 00:51:23;;;;;;;8.32;1.38;;;7.90;99.90;;;;;;4945777;28;20134;-63
2021/11/12 00:53:54;;;;;;;6.97;1.30;;;7.90;99.90;;;;;;4945281;28;20055;-65
2021/11/12 00:56:25;;;;;;;4.20;1.25;;;7.90;99.90;;;;;;4940284;28;20050;-65
2021/11/12 00:58:53;;;;;;;3.28;1.58;;;7.90;99.90;;;;;;4958404;28;20528;-67
2021/11/12 01:01:21;;;;;;;12.00;1.92;;;7.90;99.90;;;;;;4964501;28;20089;-64
2021/11/12 01:03:49;;;;;;;8.88;1.55;;;7.80;99.90;;;;;;4966833;28;20054;-67
2021/11/12 01:06:17;;;;;;;8.48;1.25;;;7.80;99.90;;;;;;4968505;28;20456;-63
2021/11/12 01:08:44;;;;;;;8.43;1.67;;;7.80;99.90;;;;;;4964892;28;20496;-68
2021/11/12 01:11:12;;;;;;;7.07;2.38;;;7.80;99.90;;;;;;4972548;28;20542;-68
2021/11/12 01:13:40;;;;;;;7.20;1.45;;;7.80;99.90;;;;;;4967914;28;20110;-64
2021/11/12 01:16:08;;;;;;;2.22;0.88;;;7.80;99.90;;;;;;4968145;28;20050;-63
2021/11/12 01:18:36;;;;;;;8.18;1.58;;;7.80;99.90;;;;;;4948335;28;20065;-63
2021/11/12 01:21:10;;;;;;;3.83;2.40;;;7.80;99.90;;;;;;4950268;28;20513;-67
2021/11/12 01:23:40;;;;;;;6.97;1.40;;;7.80;99.90;;;;;;4958358;28;20101;-64
2021/11/12 01:26:07;;;;;;;7.57;1.30;;;7.80;99.90;;;;;;4966173;28;20094;-66
2021/11/12 01:28:34;;;;;;;4.00;0.85;;;7.80;99.90;;;;;;4946851;28;20059;-68
2021/11/12 01:31:02;;;;;;;8.00;2.15;;;7.70;99.90;;;;;;4948898;28;20039;-70
2021/11/12 01:33:30;;;;;;;8.88;1.30;;;7.80;99.90;;;;;;4950061;28;20575;-69
2021/11/12 01:36:04;;;;;;;12.82;4.60;;;7.70;99.90;;;;;;4947518;28;20079;-63
2021/11/12 01:38:31;;;;;;;3.05;1.27;;;7.70;99.90;;;;;;4946241;28;20079;-66
2021/11/12 01:40:59;;;;;;;8.98;1.45;;;7.70;99.90;;;;;;4948225;28;20051;-67
2021/11/12 01:43:35;;;;;;;5.55;1.23;;;7.70;99.90;;;;;;4946152;28;20179;-67
2021/11/12 01:48:48;;;;;;;3.22;1.25;;;7.70;99.90;;;;;;4946532;28;20138;-65
2021/11/12 01:51:26;;;;;;;6.78;0.98;;;7.60;99.90;;;;;;4948686;28;20126;-71
2021/11/12 01:56:36;;;;;;;3.72;1.25;;;7.60;99.90;;;;;;4945858;28;20513;-64
2021/11/12 02:01:35;;;;;;;6.00;2.42;;;7.70;99.90;;;;;;4948262;28;20098;-63
2021/11/12 02:04:06;;;;;;;6.10;2.38;;;7.70;99.90;;;;;;4944523;28;20621;-68
2021/11/12 02:06:34;;;;;;;6.10;1.20;;;7.70;99.90;;;;;;4945875;28;20394;-65
2021/11/12 02:09:05;;;;;;;5.88;1.30;;;7.70;99.90;;;;;;4945137;28;20061;-63
2021/11/12 02:11:32;;;;;;;6.82;1.20;;;7.70;99.90;;;;;;4946401;28;20078;-64
2021/11/12 02:13:59;;;;;;;4.00;1.35;;;7.70;99.90;;;;;;4943812;28;20151;-67
2021/11/12 02:16:33;;;;;;;5.75;1.05;;;7.70;99.90;;;;;;4945431;28;20055;-68
2021/11/12 02:19:01;;;;;;;7.38;1.20;;;7.70;99.90;;;;;;4946647;28;20047;-64
2021/11/12 02:21:41;;;;;;;2.63;1.25;;;7.70;99.90;;;;;;4949054;28;20051;-64
2021/11/12 02:24:11;;;;;;;5.25;2.05;;;7.70;99.90;;;;;;4947124;28;20089;-67
2021/11/12 02:26:42;;;;;;;8.17;1.30;;;7.70;99.90;;;;;;4942463;28;20066;-71
2021/11/12 02:29:11;;;;;;;7.68;1.95;;;7.60;99.90;;;;;;4945609;28;20389;-67
2021/11/12 02:31:39;;;;;;;3.50;1.25;;;7.70;99.90;;;;;;4951413;28;20173;-63
2021/11/12 02:34:09;;;;;;;6.07;1.17;;;7.70;99.90;;;;;;4947647;28;20057;-64
2021/11/12 02:36:38;;;;;;;8.13;0.70;;;7.60;99.90;;;;;;4945996;28;20114;-65
2021/11/12 02:39:07;;;;;;;3.88;0.93;;;7.60;99.90;;;;;;4947795;28;20071;-64
2021/11/12 02:41:37;;;;;;;4.15;0.93;;;7.60;99.90;;;;;;4947086;28;20149;-67
2021/11/12 02:44:05;;;;;;;4.75;1.00;;;7.60;99.90;;;;;;4950612;28;20050;-68
2021/11/12 02:46:32;;;;;;;9.07;2.13;;;7.60;99.90;;;;;;4944770;28;20051;-65
2021/11/12 02:49:00;;;;;;;5.35;0.93;;;7.60;99.90;;;;;;4947678;28;20452;-64
2021/11/12 02:51:31;;;;;;;5.75;1.35;;;7.60;99.90;;;;;;4946258;28;20059;-64
2021/11/12 02:54:00;;;;;;;3.45;0.88;;;7.60;99.90;;;;;;4943311;28;20055;-64
2021/11/12 02:56:32;;;;;;;4.80;0.80;;;7.60;99.90;;;;;;4942180;28;20138;-65
2021/11/12 02:59:11;;;;;;;3.67;0.93;;;7.60;99.90;;;;;;4946702;28;20356;-67
2021/11/12 03:01:43;;;;;;;8.88;1.00;;;7.60;99.90;;;;;;4946401;28;20051;-67
2021/11/12 03:04:11;;;;;;;5.65;1.65;;;7.60;99.90;;;;;;4946253;28;20753;-64
2021/11/12 03:06:39;;;;;;;5.15;1.70;;;7.60;99.90;;;;;;4945898;28;20094;-69
2021/11/12 03:09:08;;;;;;;7.28;1.23;;;7.50;99.90;;;;;;4944975;28;20048;-70
2021/11/12 03:11:37;;;;;;;5.93;1.00;;;7.50;99.90;;;;;;4948628;28;20086;-65
2021/11/12 03:14:09;;;;;;;2.53;0.63;;;7.60;99.90;;;;;;4944597;28;20142;-64
2021/11/12 03:16:37;;;;;;;5.63;1.15;;;7.60;99.90;;;;;;4944221;28;20065;-69
2021/11/12 03:19:07;;;;;;;6.68;0.90;;;7.50;99.90;;;;;;4946223;28;20133;-65
2021/11/12 03:21:35;;;;;;;13.02;1.00;;;7.50;99.90;;;;;;4946131;28;20113;-67
2021/11/12 03:24:06;;;;;;;3.80;2.03;;;7.50;99.90;;;;;;4946456;28;20051;-64
2021/11/12 03:59:53;;;;;;;1.88;0.73;;;7.50;99.90;;;;;;4963859;28;20045;-69
2021/11/12 05:10:33;;;;;;;2.97;0.90;;;7.20;99.90;;;;;;4941373;28;20043;-68
2021/11/12 05:56:40;;;;;;;3.40;1.13;;;7.20;99.90;;;;;;4945350;28;20402;-63
2021/11/12 05:59:10;;;;;;;2.95;0.90;;;7.30;99.90;;;;;;4941360;28;20254;-63
2021/11/12 06:01:38;;;;;;;4.28;0.68;;;7.30;99.90;;;;;;4946220;28;20082;-62
2021/11/12 06:04:06;;;;;;;6.47;0.95;;;7.30;99.90;;;;;;4948862;28;20139;-63
2021/11/12 06:06:33;;;;;;;3.55;0.90;;;7.30;99.90;;;;;;4946072;28;20051;-63
2021/11/12 06:09:01;;;;;;;1.70;0.70;;;7.30;99.90;;;;;;4947515;28;20055;-65
2021/11/12 06:11:28;;;;;;;3.75;0.73;;;7.30;99.90;;;;;;4949317;28;20477;-63
2021/11/12 06:13:57;;;;;;;3.20;0.70;;;7.20;99.90;;;;;;4967365;28;20078;-65
2021/11/12 06:16:25;;;;;;;5.80;0.60;;;7.30;99.90;;;;;;4966529;28;20413;-73
2021/11/12 06:18:53;;;;;;;2.20;0.98;;;7.30;99.90;;;;;;4944832;28;20075;-66
2021/11/12 06:21:21;;;;;;;3.45;0.52;;;7.30;99.90;;;;;;4950249;28;20109;-64
2021/11/12 06:23:49;;;;;;;3.97;0.60;;;7.20;99.90;;;;;;4945370;28;20129;-64
2021/11/12 06:26:17;;;;;;;3.38;0.65;;;7.20;99.90;;;;;;4946004;28;20055;-62
2021/11/12 06:28:45;;;;;;;2.58;1.20;;;7.10;99.90;;;;;;4946292;28;20056;-67
2021/11/12 06:31:13;;;;;;;8.60;1.00;;;7.20;99.90;;;;;;4945267;28;20051;-65
2021/11/12 06:33:40;;;;;;;10.18;1.05;;;7.20;99.90;;;;;;4941901;28;20052;-64
2021/11/12 06:36:07;;;;;;;3.45;0.70;;;7.20;99.90;;;;;;4944092;28;20131;-67
2021/11/12 06:38:36;;;;;;;7.07;1.45;;;7.20;99.90;;;;;;4946880;28;20053;-65
2021/11/12 06:41:09;;;;;;;7.82;2.13;;;7.20;99.90;;;;;;4944263;28;20043;-64
2021/11/12 06:51:42;;;;;;;5.10;2.08;;;7.10;99.90;;;;;;4965489;28;20220;-66
2021/11/12 06:54:09;;;;;;;4.25;0.40;;;7.10;99.90;;;;;;4950005;28;20728;-68
2021/11/12 06:56:36;;;;;;;6.85;0.93;;;7.10;99.90;;;;;;4959850;28;20054;-64
2021/11/12 06:59:03;;;;;;;1.70;1.00;;;7.10;99.90;;;;;;4967148;28;20146;-67
2021/11/12 07:01:30;;;;;;;4.43;1.02;;;7.10;99.90;;;;;;4964706;28;20133;-63
2021/11/12 07:03:58;;;;;;;5.95;0.93;;;7.10;99.90;;;;;;4972460;28;20051;-64
2021/11/12 07:06:26;;;;;;;3.78;0.60;;;7.10;99.90;;;;;;4965619;28;20497;-65
2021/11/12 07:08:54;;;;;;;6.88;1.05;;;7.10;99.90;;;;;;4963285;28;20440;-69
2021/11/12 07:11:21;;;;;;;3.92;0.75;;;7.10;99.90;;;;;;4964868;28;20086;-64
2021/11/12 07:13:49;;;;;;;1.42;0.57;;;7.10;99.90;;;;;;4966210;28;20071;-64
2021/11/12 07:16:17;;;;;;;6.65;1.13;;;7.10;99.90;;;;;;4966159;28;20078;-62
2021/11/12 07:18:44;;;;;;;5.32;2.05;;;7.10;99.90;;;;;;4963257;28;20097;-66
2021/11/12 07:21:12;;;;;;;3.50;0.82;;;7.10;99.90;;;;;;4946277;28;20094;-63
2021/11/12 07:24:00;;;;;;;4.03;0.68;;;7.10;99.90;;;;;;4945704;28;20141;-66
2021/11/12 07:26:26;;;;;;;2.45;0.77;;;7.10;99.90;;;;;;4946090;28;20147;-63
2021/11/12 07:28:53;;;;;;;1.25;0.40;;;7.10;99.90;;;;;;4946659;28;20047;-66
2021/11/12 07:31:41;;;;;;;3.55;0.75;;;7.10;99.90;;;;;;4941353;28;20796;-63
2021/11/12 07:34:08;;;;;;;2.58;0.95;;;7.20;99.90;;;;;;4938020;28;20059;-63
2021/11/12 07:36:39;;;;;;;0.70;0.35;;;7.20;99.90;;;;;;4942979;28;20074;-63
2021/11/12 07:39:16;;;;;;;3.03;0.80;;;7.20;99.90;;;;;;4947722;28;20413;-64
2021/11/12 07:42:05;;;;;;;2.78;0.68;;;7.20;99.90;;;;;;4944287;28;20054;-63
2021/11/12 07:47:10;;;;;;;6.40;0.88;;;7.20;99.90;;;;;;4944439;28;20441;-64
2021/11/12 07:49:45;;;;;;;5.18;0.88;;;7.20;99.90;;;;;;4947238;28;20051;-67
2021/11/12 07:52:12;;;;;;;3.45;1.10;;;7.30;99.90;;;;;;4946358;28;20059;-64
2021/11/12 07:54:41;;;;;;;4.15;0.80;;;7.30;99.90;;;;;;4941321;28;20043;-66
2021/11/12 07:57:09;;;;;;;5.28;0.85;;;7.30;99.90;;;;;;4943868;28;20039;-67
2021/11/12 07:59:36;;;;;;;5.80;0.65;;;7.20;99.90;;;;;;4944312;28;20051;-63
2021/11/12 08:02:05;;;;;;;4.15;0.77;;;7.30;99.90;;;;;;4947962;28;20705;-65
2021/11/12 08:04:33;;;;;;;1.90;0.65;;;7.30;99.90;;;;;;4943080;28;20067;-63
2021/11/12 08:07:01;;;;;;;2.47;0.60;;;7.20;99.90;;;;;;4946771;28;20078;-64
2021/11/12 08:10:18;;;;;;;1.20;0.43;;;7.30;99.90;;;;;;4952666;28;20042;-67
2021/11/12 08:15:31;;;;;;;0.60;0.30;;;7.30;99.90;;;;;;4968182;28;20047;-65
2021/11/12 08:21:01;;;;;;;1.55;0.50;;;7.30;99.90;;;;;;4958643;28;20054;-68
2021/11/12 08:37:11;;;;;;;2.60;0.68;;;7.40;99.90;;;;;;4962152;28;20484;-69
2021/11/12 08:39:50;;;;;;;1.17;0.40;;;7.40;99.90;;;;;;4963114;28;20611;-65
2021/11/12 08:42:24;;;;;;;2.97;0.38;;;7.50;99.90;;;;;;4964362;28;20217;-70
2021/11/12 08:44:57;;;;;;;2.90;1.05;;;7.50;99.90;;;;;;4962387;28;20047;-69
2021/11/12 08:47:29;;;;;;;3.70;0.95;;;7.50;99.90;;;;;;4957612;28;20070;-70
2021/11/12 08:49:57;;;;;;;6.38;0.75;;;7.50;99.90;;;;;;4964602;28;20123;-63
2021/11/12 08:52:25;;;;;;;2.88;0.60;;;7.50;99.90;;;;;;4965630;28;20066;-66
2021/11/12 08:54:52;;;;;;;5.10;2.30;;;7.50;99.90;;;;;;4960453;28;20046;-72
2021/11/12 08:57:20;;;;;;;1.85;0.20;;;7.60;99.90;;;;;;4965089;28;20046;-68
2021/11/12 08:59:50;;;;;;;1.10;0.50;;;7.60;99.90;;;;;;4963724;28;20087;-62
2021/11/12 09:02:23;;;;;;;8.38;0.70;;;7.70;99.90;;;;;;4964954;28;20077;-66
2021/11/12 09:04:50;;;;;;;4.28;0.95;;;7.70;99.90;;;;;;4962954;28;20054;-65
2021/11/12 09:07:18;;;;;;;2.67;0.43;;;7.70;99.90;;;;;;4957246;28;20086;-65
2021/11/12 09:09:50;;;;;;;4.43;0.63;;;7.70;99.90;;;;;;4945136;28;20137;-74
2021/11/12 09:12:21;;;;;;;1.02;0.45;;;7.70;99.90;;;;;;4944681;28;20054;-63
2021/11/12 09:14:50;;;;;;;2.42;0.55;;;7.70;99.90;;;;;;4942619;28;20143;-62
2021/11/12 09:17:19;;;;;;;1.05;0.55;;;7.70;99.90;;;;;;4959576;28;20137;-63
2021/11/12 09:19:52;;;;;;;1.48;0.63;;;7.70;99.90;;;;;;4944983;28;20382;-66
2021/11/12 09:22:22;;;;;;;2.45;0.80;;;7.80;99.90;;;;;;4945093;28;20061;-65
2021/11/12 09:24:51;;;;;;;1.80;0.40;;;7.80;99.90;;;;;;4944095;28;20111;-69
2021/11/12 09:27:19;;;;;;;3.08;0.45;;;7.80;99.90;;;;;;4949630;28;20141;-63
2021/11/12 09:29:47;;;;;;;1.50;0.50;;;7.80;99.90;;;;;;4948835;28;20047;-63
2021/11/12 09:32:15;;;;;;;2.67;1.40;;;7.80;99.90;;;;;;4947469;28;20073;-66
2021/11/12 09:34:42;;;;;;;3.92;2.00;;;7.80;99.90;;;;;;4944233;28;20039;-64
2021/11/12 09:37:19;;;;;;;3.88;1.02;;;7.80;99.90;;;;;;4947322;28;20509;-64
2021/11/12 09:39:52;;;;;;;2.33;0.50;;;7.80;99.90;;;;;;4947804;28;20122;-72
2021/11/12 09:42:22;;;;;;;9.63;1.73;;;7.80;99.90;;;;;;4946274;28;20397;-67
2021/11/12 09:44:49;;;;;;;1.25;0.57;;;7.70;99.90;;;;;;4947443;28;20182;-65
2021/11/12 09:47:23;;;;;;;2.35;0.50;;;7.80;99.90;;;;;;4948370;28;20331;-64
2021/11/12 09:49:52;;;;;;;5.18;0.70;;;7.70;99.90;;;;;;4946575;28;20051;-64
2021/11/12 09:52:19;;;;;;;1.25;0.43;;;7.80;99.90;;;;;;4947851;28;20089;-67
2021/11/12 09:54:48;;;;;;;2.33;0.90;;;7.80;99.90;;;;;;4949523;28;20138;-71
2021/11/12 09:57:15;;;;;;;4.18;0.65;;;7.80;99.90;;;;;;4947677;28;20040;-63
2021/11/12 09:59:50;;;;;;;6.13;0.45;;;7.70;99.90;;;;;;4947811;28;20135;-65
2021/11/12 10:02:19;;;;;;;5.57;1.05;;;7.80;99.90;;;;;;4961831;28;20059;-67
2021/11/12 10:04:48;;;;;;;2.78;0.45;;;7.80;99.90;;;;;;4945119;28;20078;-67
2021/11/12 10:07:21;;;;;;;4.60;0.82;;;7.80;99.90;;;;;;4944924;28;20777;-70
2021/11/12 10:10:05;;;;;;;2.55;0.52;;;7.80;99.90;;;;;;4945399;28;20485;-73
2021/11/12 10:12:38;;;;;;;3.22;0.88;;;7.80;99.90;;;;;;4962987;28;20047;-63
2021/11/12 10:15:15;;;;;;;2.03;0.70;;;7.80;99.90;;;;;;4953094;28;20739;-64
2021/11/12 10:17:48;;;;;;;4.25;0.50;;;7.80;99.90;;;;;;4957504;28;20512;-65
2021/11/12 10:20:18;;;;;;;5.45;0.80;;;7.80;99.90;;;;;;4943697;28;20775;-65
2021/11/12 10:22:48;;;;;;;1.90;0.50;;;7.80;99.90;;;;;;4946351;28;20366;-66
2021/11/12 10:25:16;;;;;;;5.35;1.00;;;7.80;99.90;;;;;;4946184;28;20051;-66
2021/11/12 10:27:50;;;;;;;2.35;0.40;;;7.80;99.90;;;;;;4943020;28;20153;-66
2021/11/12 10:30:28;;;;;;;4.03;0.70;;;7.80;99.90;;;;;;4947590;28;20047;-63
2021/11/12 10:32:58;;;;;;;3.50;1.27;;;7.80;99.90;;;;;;4946808;28;20502;-67
2021/11/12 10:35:27;;;;;;;11.77;1.40;;;7.80;99.90;;;;;;4945417;28;20147;-65
2021/11/12 10:38:06;;;;;;;0.73;0.50;;;7.80;99.90;;;;;;4947238;28;20133;-71
2021/11/12 10:40:33;;;;;;;0.65;0.50;;;7.80;99.90;;;;;;4943867;28;20724;-64
2021/11/12 10:43:00;;;;;;;2.92;0.38;;;7.80;99.90;;;;;;4947147;28;20067;-68
2021/11/12 10:45:30;;;;;;;3.30;0.88;;;7.80;99.90;;;;;;4942215;28;20071;-63
2021/11/12 10:47:59;;;;;;;;;;;7.80;99.90;;;;;;4950480;28;20097;-66
2021/11/12 10:50:29;;;;;;;3.00;0.70;;;7.80;99.90;;;;;;4942231;28;20000;-63
2021/11/12 10:53:05;;;;;;;2.38;0.43;;;7.80;99.90;;;;;;4948130;28;20131;-63
2021/11/12 10:55:35;;;;;;;2.00;0.70;;;7.80;99.90;;;;;;4946129;28;20047;-62
2021/11/12 10:58:06;;;;;;;3.97;1.20;;;7.80;99.90;;;;;;4948200;28;20062;-66
2021/11/12 11:00:37;;;;;;;;;;;7.80;99.90;;;;;;4944855;28;20130;-63
2021/11/12 11:03:05;;;;;;;3.83;0.60;;;7.80;99.90;;;;;;4946560;28;19922;-64
2021/11/12 11:06:03;;;;;;;0.57;0.47;;;7.80;99.90;;;;;;4948449;28;20126;-64
2021/11/12 11:08:34;;;;;;;3.30;0.93;;;7.80;99.90;;;;;;4959543;28;20080;-69
2021/11/12 11:11:06;;;;;;;4.50;0.50;;;7.80;99.90;;;;;;4963406;28;20051;-62
2021/11/12 11:13:42;;;;;;;7.85;0.88;;;7.80;99.90;;;;;;4965588;28;20081;-68
2021/11/12 11:16:17;;;;;;;0.30;0.20;;;7.80;99.90;;;;;;4979237;28;20137;-67
2021/11/12 11:18:52;;;;;;;3.22;0.47;;;7.90;99.90;;;;;;4962408;28;20079;-65
2021/11/12 11:23:51;;;;;;;4.63;1.02;;;7.90;99.90;;;;;;4965055;28;20062;-63
2021/11/12 11:26:23;;;;;;;2.22;0.40;;;7.90;99.90;;;;;;4964349;28;20043;-69
2021/11/12 11:28:54;;;;;;;0.98;0.60;;;7.80;99.90;;;;;;4963090;28;20053;-66
2021/11/12 11:31:28;;;;;;;1.33;0.40;;;7.80;99.90;;;;;;4959411;28;20343;-64
2021/11/12 11:33:56;;;;;;;10.23;0.90;;;7.90;99.90;;;;;;4952182;28;20059;-64
2021/11/12 11:36:26;;;;;;;0.77;0.38;;;7.90;99.90;;;;;;4962986;28;20592;-69
2021/11/12 11:38:55;;;;;;;6.68;1.10;;;7.90;99.90;;;;;;4962407;28;20122;-68
2021/11/12 11:41:25;;;;;;;4.03;0.73;;;7.90;99.90;;;;;;4963192;28;20042;-68
2021/11/12 11:43:53;;;;;;;3.88;0.40;;;8.00;99.90;;;;;;4966244;28;20485;-65
2021/11/12 11:46:23;;;;;;;3.33;0.55;;;8.00;99.90;;;;;;4961810;28;20153;-70
2021/11/12 11:48:53;;;;;;;0.85;0.85;;;7.90;99.90;;;;;;4963316;28;20051;-67
2021/11/12 11:51:26;;;;;;;4.35;0.70;;;7.90;99.90;;;;;;4964850;28;20121;-65
2021/11/12 11:53:59;;;;;;;1.83;0.45;;;8.00;99.90;;;;;;4965591;28;20843;-65
2021/11/12 11:56:27;;;;;;;2.53;0.30;;;8.00;99.90;;;;;;4962085;28;20537;-62
2021/11/12 11:58:57;;;;;;;4.28;0.50;;;8.00;99.90;;;;;;4962877;28;20089;-68
2021/11/12 12:01:24;;;;;;;3.40;0.45;;;8.10;99.90;;;;;;4964936;28;20120;-67
2021/11/12 12:04:09;;;;;;;2.97;0.52;;;8.10;99.90;;;;;;4962701;28;20073;-65
2021/11/12 12:06:41;;;;;;;3.03;0.70;;;8.10;99.90;;;;;;4963289;28;20051;-64
2021/11/12 12:09:11;;;;;;;3.65;0.60;;;8.10;99.90;;;;;;4960189;28;20050;-66
2021/11/12 12:11:50;;;;;;;1.38;0.52;;;8.10;99.90;;;;;;4961720;28;20133;-63
2021/11/12 12:14:23;;;;;;;4.43;1.08;;;8.10;99.90;;;;;;4965329;28;20113;-65
2021/11/12 12:17:10;;;;;;;2.53;0.82;;;8.10;99.90;;;;;;4962762;28;20437;-68
2021/11/12 12:19:43;;;;;;;1.75;0.40;;;8.10;99.90;;;;;;4965032;28;20121;-65
2021/11/12 12:38:10;;;;;;;2.53;0.80;;;7.80;99.90;;;;;;4943688;28;20465;-64
2021/11/12 13:23:11;;;;;;;1.70;0.47;;;7.60;99.90;;;;;;4940061;28;20157;-71
2021/11/12 13:25:47;;;;;;;5.35;0.93;;;7.70;99.90;;;;;;4944723;28;20705;-66
2021/11/12 13:28:20;;;;;;;9.32;1.27;;;7.60;99.90;;;;;;4945853;28;20094;-71
2021/11/12 13:31:01;;;;;;;1.65;0.47;;;7.60;99.90;;;;;;4949023;28;20471;-65
2021/11/12 13:33:34;;;;;;;0.70;0.57;;;7.60;99.90;;;;;;4956889;28;20070;-64
2021/11/12 13:36:11;;;;;;;4.10;0.60;;;7.60;99.90;;;;;;4940919;28;20129;-65
2021/11/12 13:39:06;;;;;;;3.15;0.38;;;7.60;99.90;;;;;;4944478;28;20094;-66
2021/11/12 13:41:42;;;;;;;4.63;0.60;;;7.60;99.90;;;;;;4944858;28;20487;-63
2021/11/12 13:44:11;;;;;;;2.90;0.82;;;7.60;99.90;;;;;;4959451;28;20713;-68
2021/11/12 13:46:48;;;;;;;1.15;0.38;;;7.50;99.90;;;;;;4946029;28;20146;-71
2021/11/12 13:49:36;;;;;;;2.80;0.68;;;7.50;99.90;;;;;;4948052;28;20047;-69
2021/11/12 13:52:03;;;;;;;1.15;0.47;;;7.50;99.90;;;;;;4959750;28;20078;-65
2021/11/12 13:54:38;;;;;;;4.28;0.50;;;7.50;99.90;;;;;;4963771;28;20641;-69
2021/11/12 13:57:11;;;;;;;4.50;0.93;;;7.50;99.90;;;;;;4964393;28;20053;-68
2021/11/12 13:59:50;;;;;;;4.15;1.00;;;7.50;99.90;;;;;;4965784;28;20540;-64
2021/11/12 14:02:17;;;;;;;3.47;0.80;;;7.50;99.90;;;;;;4966129;28;20074;-66
2021/11/12 14:04:44;;;;;;;1.55;0.60;;;7.50;99.90;;;;;;4949381;28;20055;-76
2021/11/12 14:07:22;;;;;;;10.15;1.88;;;7.40;99.90;;;;;;4958737;28;20070;-65
2021/11/12 14:10:04;;;;;;;7.65;1.42;;;7.40;99.90;;;;;;4945183;28;20086;-67
2021/11/12 14:12:32;;;;;;;6.55;1.15;;;7.40;99.90;;;;;;4942521;28;20059;-66
2021/11/12 14:15:09;;;;;;;6.68;1.17;;;7.30;99.90;;;;;;4945141;28;20082;-67
2021/11/12 14:17:48;;;;;;;3.92;1.33;;;7.30;99.90;;;;;;4959126;28;20044;-67
2021/11/12 14:20:52;;;;;;;2.33;0.82;;;7.20;99.90;;;;;;4947335;28;20043;-67
2021/11/12 14:23:17;;;;;;;1.52;0.65;;;7.20;99.90;;;;;;4945966;28;20078;-68
2021/11/12 14:28:49;;;;;;;8.13;1.08;;;7.10;99.90;;;;;;4942364;28;20057;-64
2021/11/12 14:32:28;;;;;;;2.67;0.85;;;7.10;99.90;;;;;;4944734;28;20617;-71
2021/11/12 14:34:45;;;;;;;3.70;0.60;;;7.00;99.90;;;;;;4950999;28;20043;-62
2021/11/12 14:37:13;;;;;;;5.35;0.85;;;7.00;99.90;;;;;;4942265;28;20138;-65
2021/11/12 14:40:10;;;;;;;8.30;0.85;;;7.00;99.90;;;;;;4946972;28;20059;-68
2021/11/12 14:43:03;;;;;;;2.47;0.60;;;6.90;99.90;;;;;;4948854;28;20059;-67
2021/11/12 14:45:34;;;;;;;1.45;0.68;;;6.90;99.90;;;;;;4947460;28;20362;-66
2021/11/12 14:56:16;;;;;;;4.28;0.77;;;6.90;99.90;;;;;;4938432;28;20629;-62
2021/11/12 14:58:59;;;;;;;3.83;0.60;;;6.90;99.90;;;;;;4948212;28;20047;-66
2021/11/12 15:01:29;;;;;;;14.32;1.85;;;6.90;99.90;;;;;;4964868;28;20050;-64
2021/11/12 15:03:56;;;;;;;3.47;0.88;;;6.90;99.90;;;;;;4967686;28;20106;-69
2021/11/12 15:06:25;;;;;;;4.68;0.70;;;6.90;99.90;;;;;;4964751;28;20047;-67
2021/11/12 15:09:03;;;;;;;3.30;0.75;;;6.90;99.90;;;;;;4940745;28;20594;-67
2021/11/12 15:11:31;;;;;;;5.85;0.90;;;6.90;99.90;;;;;;4943701;28;20114;-64
2021/11/12 15:14:13;;;;;;;5.07;2.35;;;6.90;99.90;;;;;;4947477;28;20503;-68
2021/11/12 15:17:02;;;;;;;2.88;0.68;;;6.90;99.90;;;;;;4944057;28;20112;-69
2021/11/12 15:19:31;;;;;;;2.15;0.50;;;6.90;99.90;;;;;;4966932;28;20050;-64
2021/11/12 15:22:21;;;;;;;4.72;1.13;;;6.90;99.90;;;;;;4963379;28;20401;-69
2021/11/12 15:27:40;;;;;;;3.03;0.70;;;6.90;99.90;;;;;;4945530;28;20143;-64
2021/11/12 15:30:13;;;;;;;1.98;0.63;;;6.90;99.90;;;;;;4952046;28;20091;-71
2021/11/12 15:32:40;;;;;;;2.67;0.95;;;6.90;99.90;;;;;;4944996;28;20857;-66
2021/11/12 15:35:13;;;;;;;3.05;1.02;;;6.90;99.90;;;;;;4962884;28;20420;-68
2021/11/12 15:37:46;;;;;;;2.63;1.55;;;6.90;99.90;;;;;;4945645;28;20153;-68
2021/11/12 15:40:22;;;;;;;3.60;2.05;;;6.90;99.90;;;;;;4946662;28;20070;-64
2021/11/12 15:50:59;;;;;;;2.78;0.75;;;6.90;99.90;;;;;;4943074;28;20520;-65
2021/11/12 15:58:52;;;;;;;1.75;0.93;;;6.90;99.90;;;;;;4947998;28;20051;-71
2021/11/12 16:01:40;;;;;;;3.40;0.95;;;6.80;99.90;;;;;;4947554;28;20110;-64
2021/11/12 16:12:08;;;;;;;2.42;1.23;;;6.80;99.90;;;;;;4962519;28;20122;-64
2021/11/12 16:17:41;;;;;;;25.45;11.20;;;6.70;99.90;;;;;;4963339;28;20369;-66
2021/11/12 16:25:21;;;;;;;17.83;7.30;;;6.40;99.90;;;;;;4967817;28;20185;-65
2021/11/12 16:27:55;;;;;;;23.60;6.68;;;6.30;99.90;;;;;;4971846;28;20074;-64
2021/11/12 16:30:27;;;;;;;12.93;6.22;;;6.30;99.90;;;;;;4966752;28;20050;-63
2021/11/12 16:32:56;;;;;;;9.30;6.43;;;6.20;99.90;;;;;;4946530;28;20137;-66
2021/11/12 16:35:25;;;;;;;6.97;4.35;;;6.20;99.90;;;;;;4946553;28;20174;-71
2021/11/12 16:38:01;;;;;;;13.03;6.93;;;6.10;99.90;;;;;;4949446;28;20066;-70
2021/11/12 16:40:38;;;;;;;10.63;4.15;;;6.10;99.90;;;;;;4941481;28;20551;-63
2021/11/12 16:48:38;;;;;;;11.93;5.43;;;5.90;99.90;;;;;;4947508;28;20055;-64
2021/11/12 17:01:49;;;;;;;21.10;9.07;;;5.50;99.90;;;;;;4952992;28;20528;-69
2021/11/12 17:04:35;;;;;;;12.57;6.97;;;5.40;99.90;;;;;;4944455;28;20112;-65
2021/11/12 17:10:12;;;;;;;19.10;9.18;;;5.40;99.90;;;;;;4959638;28;20084;-70
2021/11/12 17:15:30;;;;;;;13.68;7.78;;;5.30;99.90;;;;;;4947961;28;20098;-67
2021/11/12 17:18:12;;;;;;;8.13;7.30;;;5.30;99.90;;;;;;4945551;28;20162;-63
2021/11/12 17:24:05;;;;;;;15.18;7.57;;;5.20;99.90;;;;;;4943858;28;20082;-64
2021/11/12 17:48:06;;;;;;;16.73;9.27;;;5.00;99.90;;;;;;4968006;28;20073;-64
2021/11/12 18:04:04;;;;;;;29.88;19.92;;;4.70;99.90;;;;;;4966001;28;20066;-65
2021/11/12 18:06:45;;;;;;;32.08;18.63;;;4.70;99.90;;;;;;4963734;28;20055;-66
2021/11/12 18:12:20;;;;;;;25.95;13.38;;;4.60;99.90;;;;;;4966388;28;20051;-66
2021/11/12 21:48:34;;;;;;;8.30;3.67;;;2.40;99.90;;;;;;4947519;28;20043;-65
2021/11/12 21:51:05;;;;;;;9.95;3.10;;;2.40;99.90;;;;;;4947075;28;20040;-64
2021/11/12 21:53:33;;;;;;;4.53;3.80;;;2.40;99.90;;;;;;4948868;28;20534;-64
2021/11/12 21:56:02;;;;;;;5.50;4.15;;;2.40;99.90;;;;;;4962314;28;20146;-67
2021/11/12 21:58:31;;;;;;;11.93;4.00;;;2.40;99.90;;;;;;4947691;28;20154;-66
2021/11/12 22:01:01;;;;;;;4.68;3.30;;;2.30;99.90;;;;;;4982237;28;20090;-63
2021/11/12 22:03:29;;;;;;;5.50;3.38;;;2.30;99.90;;;;;;4959034;28;20051;-62
2021/11/12 22:05:58;;;;;;;5.47;3.00;;;2.30;99.90;;;;;;4961001;28;20075;-63
2021/11/12 22:08:28;;;;;;;6.47;2.50;;;2.30;99.90;;;;;;4965266;28;20049;-65
2021/11/12 22:11:00;;;;;;;6.25;2.85;;;2.30;99.90;;;;;;4967188;28;20049;-66
2021/11/12 22:13:27;;;;;;;7.30;2.85;;;2.30;99.90;;;;;;4967478;28;20125;-67
2021/11/12 22:15:54;;;;;;;6.43;2.13;;;2.30;99.90;;;;;;4960796;28;20745;-71
2021/11/12 22:18:21;;;;;;;5.13;2.25;;;2.40;99.90;;;;;;4964408;28;20047;-65
2021/11/12 22:20:49;;;;;;;6.97;2.75;;;2.30;99.90;;;;;;4965688;28;20126;-63
2021/11/12 22:23:20;;;;;;;5.50;2.13;;;2.40;99.90;;;;;;4900939;28;20051;-65
2021/11/12 22:25:49;;;;;;;5.50;2.05;;;2.40;99.90;;;;;;1050892;28;10023632;-68
2021/11/12 22:28:16;;;;;;;2.65;1.67;;;2.40;99.90;;;;;;4964861;28;20266;-66
2021/11/12 22:30:44;;;;;;;7.18;2.03;;;2.40;99.90;;;;;;4966369;28;20097;-72
2021/11/12 22:33:12;;;;;;;3.42;2.40;;;2.40;99.90;;;;;;4955435;28;20039;-64
2021/11/12 22:35:41;;;;;;;4.50;2.50;;;2.40;99.90;;;;;;4966554;28;20145;-65
2021/11/12 22:38:09;;;;;;;4.35;2.53;;;2.40;99.90;;;;;;4965903;28;20106;-63
2021/11/12 22:40:41;;;;;;;2.63;2.20;;;2.50;99.90;;;;;;4965369;28;20137;-70
2021/11/12 22:43:08;;;;;;;3.45;2.13;;;2.50;99.90;;;;;;4966721;28;20402;-62
2021/11/12 22:45:35;;;;;;;5.30;2.08;;;2.50;99.90;;;;;;4968158;28;20600;-68
2021/11/12 22:48:06;;;;;;;8.55;2.80;;;2.50;99.90;;;;;;4954270;28;20058;-65
2021/11/12 22:50:37;;;;;;;10.15;3.92;;;2.50;99.90;;;;;;4944776;28;20062;-71
2021/11/12 22:53:05;;;;;;;11.90;4.30;;;2.50;99.90;;;;;;4949641;28;20103;-64
2021/11/12 22:55:32;;;;;;;7.50;4.15;;;2.50;99.90;;;;;;4944819;28;20067;-64
2021/11/12 22:57:59;;;;;;;12.93;5.45;;;2.50;99.90;;;;;;4949552;28;20112;-70
2021/11/12 23:00:36;;;;;;;11.90;4.45;;;2.50;99.90;;;;;;4947023;28;20074;-63
2021/11/12 23:03:05;;;;;;;7.50;4.50;;;2.50;99.90;;;;;;4948117;28;20079;-65
2021/11/12 23:05:32;;;;;;;5.72;3.00;;;2.50;99.90;;;;;;4947746;28;20051;-64